Time;durP1;ratioP1;P1;durP2;ratioP2;P2;SDS_P1;SDS_P2;PMS_P1;PMS_P2;Temp;Humidity;BMP_temperature;BMP_pressure;BME280_temperature;BME280_humidity;BME280_pressure;Samples;Min_cycle;Max_cycle;Signal;HPM_P1;HPM_P2
2022/04/05 00:00:56;;;;;;;6.60;6.00;;;6.60;91.10;;;;;;5084079;28;20210;-60
2022/04/05 00:03:21;;;;;;;7.07;6.37;;;7.00;91.10;;;;;;5072262;28;20216;-60
2022/04/05 00:05:47;;;;;;;7.47;6.77;;;7.10;91.50;;;;;;5078908;28;20192;-61
2022/04/05 00:08:15;;;;;;;8.03;6.80;;;6.90;91.10;;;;;;5095469;28;20584;-61
2022/04/05 00:10:40;;;;;;;7.38;6.32;;;7.60;91.40;;;;;;5079446;28;20177;-61
2022/04/05 00:13:06;;;;;;;8.20;6.80;;;7.00;91.40;;;;;;5086195;28;20759;-61
2022/04/05 00:15:33;;;;;;;7.20;6.60;;;7.00;91.50;;;;;;5089886;28;20184;-61
2022/04/05 00:17:58;;;;;;;7.10;6.40;;;7.10;91.30;;;;;;5078646;28;20673;-61
2022/04/05 00:20:27;;;;;;;7.60;6.90;;;7.10;91.40;;;;;;5083710;28;20195;-61
2022/04/05 00:22:53;;;;;;;7.03;6.30;;;7.10;91.00;;;;;;5080757;28;20250;-61
2022/04/05 00:25:19;;;;;;;8.20;7.10;;;6.70;91.20;;;;;;5092556;28;20185;-62
2022/04/05 00:27:45;;;;;;;6.90;6.20;;;7.10;91.40;;;;;;5096925;28;20187;-62
2022/04/05 00:30:11;;;;;;;7.15;6.45;;;7.20;91.40;;;;;;5088681;28;20469;-62
2022/04/05 00:32:37;;;;;;;6.88;6.05;;;7.30;91.40;;;;;;5084996;28;20208;-62
2022/04/05 00:35:04;;;;;;;7.77;6.97;;;7.20;91.40;;;;;;5088675;28;20212;-62
2022/04/05 00:37:29;;;;;;;6.85;6.20;;;7.20;91.60;;;;;;5084670;28;20184;-62
2022/04/05 00:39:55;;;;;;;7.47;6.60;;;7.20;91.60;;;;;;5086702;28;20196;-62
2022/04/05 00:42:21;;;;;;;8.13;7.10;;;7.10;91.40;;;;;;5094051;28;20267;-61
2022/04/05 00:44:47;;;;;;;7.87;6.70;;;7.40;91.50;;;;;;5092126;28;20271;-63
2022/04/05 00:47:18;;;;;;;7.50;6.80;;;7.30;91.50;;;;;;5083806;28;20469;-63
2022/04/05 00:49:45;;;;;;;9.20;6.68;;;6.80;91.40;;;;;;5086955;28;20899;-63
2022/04/05 00:52:13;;;;;;;7.38;6.65;;;7.30;91.60;;;;;;5085147;28;20199;-62
2022/04/05 00:54:41;;;;;;;6.95;6.35;;;7.40;91.40;;;;;;5082629;28;20685;-58
2022/04/05 00:57:12;;;;;;;7.05;6.45;;;7.10;91.50;;;;;;5082159;28;20191;-62
2022/04/05 00:59:43;;;;;;;7.32;6.63;;;7.10;91.60;;;;;;5090211;28;20188;-62
2022/04/05 01:02:14;;;;;;;7.28;6.13;;;7.30;91.40;;;;;;5071893;28;20219;-62
2022/04/05 01:04:44;;;;;;;7.72;7.03;;;7.40;91.60;;;;;;5081349;28;20295;-62
2022/04/05 01:07:15;;;;;;;6.78;6.07;;;7.30;91.60;;;;;;5074055;28;20623;-63
2022/04/05 01:09:41;;;;;;;7.70;6.90;;;7.40;91.20;;;;;;5079594;28;20268;-62
2022/04/05 01:12:09;;;;;;;8.13;7.32;;;7.50;91.20;;;;;;5092582;28;20239;-62
2022/04/05 01:14:35;;;;;;;8.57;6.55;;;7.50;91.10;;;;;;5082979;28;20211;-62
2022/04/05 01:17:03;;;;;;;7.05;6.43;;;7.40;91.00;;;;;;5082653;28;20274;-60
2022/04/05 01:19:29;;;;;;;7.38;6.40;;;7.30;90.80;;;;;;5090968;28;20195;-60
2022/04/05 01:21:55;;;;;;;6.50;5.70;;;7.40;90.90;;;;;;5079192;28;20720;-62
2022/04/05 01:24:21;;;;;;;7.10;6.40;;;7.60;91.00;;;;;;5082699;28;20215;-60
2022/04/05 01:26:52;;;;;;;7.40;6.70;;;7.60;91.20;;;;;;5079741;28;20654;-60
2022/04/05 01:29:20;;;;;;;7.65;6.85;;;7.50;91.20;;;;;;5083942;28;20228;-60
2022/04/05 01:31:53;;;;;;;6.97;6.28;;;7.50;91.60;;;;;;5088588;28;20233;-61
2022/04/05 01:34:21;;;;;;;7.47;6.78;;;7.70;92.10;;;;;;5092500;28;20193;-60
2022/04/05 01:36:59;;;;;;;8.43;6.70;;;7.30;92.30;;;;;;5075171;28;20207;-61
2022/04/05 01:39:27;;;;;;;7.10;6.40;;;7.60;92.90;;;;;;5092996;28;20184;-61
2022/04/05 01:41:58;;;;;;;7.20;5.80;;;7.30;92.50;;;;;;5088513;28;20193;-62
2022/04/05 01:44:25;;;;;;;8.73;7.35;;;7.90;93.10;;;;;;5088031;28;20184;-59
2022/04/05 01:46:51;;;;;;;7.35;6.65;;;7.20;92.50;;;;;;5080593;28;20696;-62
2022/04/05 01:49:17;;;;;;;6.73;6.03;;;7.40;92.50;;;;;;5088934;28;20192;-60
2022/04/05 01:51:45;;;;;;;6.70;6.10;;;7.20;92.50;;;;;;5080065;28;20474;-61
2022/04/05 01:54:14;;;;;;;7.30;5.78;;;6.80;92.30;;;;;;5082545;28;20446;-61
2022/04/05 01:56:51;;;;;;;7.47;6.68;;;7.30;92.40;;;;;;5078337;28;20180;-60
2022/04/05 01:59:19;;;;;;;7.20;6.50;;;6.60;92.20;;;;;;5100105;28;20299;-60
2022/04/05 02:01:45;;;;;;;8.90;6.63;;;7.60;93.20;;;;;;5088455;28;20207;-62
2022/04/05 02:04:12;;;;;;;7.23;6.13;;;7.20;93.20;;;;;;5086335;28;20698;-60
2022/04/05 02:06:39;;;;;;;6.90;6.20;;;7.50;93.40;;;;;;5078850;28;20530;-60
2022/04/05 02:09:05;;;;;;;7.07;6.20;;;7.50;94.10;;;;;;5090074;28;20315;-60
2022/04/05 02:11:32;;;;;;;7.97;6.60;;;7.00;93.80;;;;;;5090419;28;20681;-60
2022/04/05 02:13:58;;;;;;;6.60;5.88;;;7.10;94.60;;;;;;5081760;28;20733;-61
2022/04/05 02:16:24;;;;;;;6.27;5.77;;;7.50;94.10;;;;;;5076875;28;20283;-60
2022/04/05 02:18:49;;;;;;;8.47;6.87;;;7.50;94.10;;;;;;5069174;28;20196;-61
2022/04/05 02:21:15;;;;;;;8.23;6.07;;;7.30;94.60;;;;;;5085624;28;20568;-61
2022/04/05 02:23:40;;;;;;;8.10;6.83;;;7.30;94.90;;;;;;5104538;28;20270;-61
2022/04/05 02:26:06;;;;;;;8.00;6.20;;;7.00;94.30;;;;;;5093357;28;20264;-60
2022/04/05 02:28:32;;;;;;;6.27;5.67;;;7.50;94.50;;;;;;5087338;28;20184;-61
2022/04/05 02:30:58;;;;;;;7.67;6.97;;;7.10;94.50;;;;;;5088856;28;20264;-61
2022/04/05 02:33:24;;;;;;;7.18;6.38;;;7.10;94.60;;;;;;5095576;28;20196;-61
2022/04/05 02:35:51;;;;;;;7.20;6.50;;;7.00;94.70;;;;;;5080599;28;20181;-61
2022/04/05 02:38:17;;;;;;;7.40;6.60;;;7.10;95.00;;;;;;5071016;28;20185;-61
2022/04/05 02:40:43;;;;;;;8.90;6.50;;;7.30;95.20;;;;;;5088581;28;20185;-61
2022/04/05 02:43:08;;;;;;;7.90;6.83;;;6.90;95.60;;;;;;5094873;28;20299;-61
2022/04/05 02:45:34;;;;;;;8.23;6.60;;;6.90;95.90;;;;;;5079489;28;20188;-61
2022/04/05 02:48:00;;;;;;;8.03;7.23;;;6.90;96.40;;;;;;5087123;28;20627;-61
2022/04/05 02:50:25;;;;;;;6.80;6.10;;;6.80;96.00;;;;;;5080935;28;20197;-61
2022/04/05 02:52:52;;;;;;;6.93;6.13;;;6.40;95.90;;;;;;5090769;28;20211;-59
2022/04/05 02:55:18;;;;;;;6.18;5.57;;;7.10;95.40;;;;;;5080098;28;20554;-61
2022/04/05 02:57:45;;;;;;;9.20;6.80;;;7.40;96.00;;;;;;5087547;28;20187;-61
2022/04/05 03:00:13;;;;;;;6.72;6.13;;;6.80;95.50;;;;;;5092317;28;20747;-61
2022/04/05 03:02:39;;;;;;;7.10;6.35;;;7.10;96.10;;;;;;5093478;28;20216;-61
2022/04/05 03:05:06;;;;;;;6.78;6.15;;;6.90;96.10;;;;;;5081439;28;20189;-61
2022/04/05 03:07:36;;;;;;;8.30;6.85;;;7.10;96.30;;;;;;5076009;28;20195;-61
2022/04/05 03:10:06;;;;;;;6.68;6.03;;;7.00;95.80;;;;;;5087112;28;20435;-61
2022/04/05 03:12:34;;;;;;;7.57;6.45;;;7.10;96.30;;;;;;5089661;28;20243;-61
2022/04/05 03:14:59;;;;;;;7.22;6.57;;;7.40;97.00;;;;;;5082903;28;20245;-61
2022/04/05 03:17:25;;;;;;;6.67;5.93;;;7.00;96.30;;;;;;5087083;28;20183;-61
2022/04/05 03:19:51;;;;;;;7.57;6.77;;;6.60;95.80;;;;;;5095947;28;20208;-61
2022/04/05 03:22:16;;;;;;;6.80;6.10;;;7.40;96.70;;;;;;5086863;28;20211;-61
2022/04/05 03:24:43;;;;;;;8.33;7.47;;;7.40;96.50;;;;;;5088349;28;20515;-61
2022/04/05 03:27:08;;;;;;;7.68;6.45;;;7.20;96.10;;;;;;5079572;28;20179;-61
2022/04/05 03:29:34;;;;;;;6.63;5.93;;;7.20;96.10;;;;;;5098626;28;20187;-61
2022/04/05 03:32:01;;;;;;;9.18;6.57;;;7.50;96.10;;;;;;5089369;28;20552;-61
2022/04/05 03:34:27;;;;;;;6.88;6.28;;;7.20;96.40;;;;;;5086851;28;20185;-61
2022/04/05 03:36:54;;;;;;;7.30;6.63;;;7.30;96.80;;;;;;5082710;28;20198;-61
2022/04/05 03:39:19;;;;;;;7.75;6.95;;;7.40;96.70;;;;;;5089381;28;20185;-61
2022/04/05 03:41:45;;;;;;;6.90;6.27;;;7.30;96.30;;;;;;5084220;28;20267;-61
2022/04/05 03:44:11;;;;;;;8.43;7.30;;;7.40;95.70;;;;;;5079666;28;20184;-61
2022/04/05 03:46:36;;;;;;;6.50;5.90;;;7.40;96.00;;;;;;5083066;28;20446;-60
2022/04/05 03:49:03;;;;;;;7.50;6.80;;;8.00;96.80;;;;;;5087683;28;20216;-60
2022/04/05 03:51:29;;;;;;;6.80;6.20;;;7.60;96.10;;;;;;5074986;28;20280;-61
2022/04/05 03:53:55;;;;;;;7.90;7.20;;;7.00;96.40;;;;;;5104939;28;20285;-61
2022/04/05 03:56:21;;;;;;;7.43;6.63;;;7.40;95.80;;;;;;5082003;28;20446;-61
2022/04/05 03:58:48;;;;;;;6.70;6.13;;;7.40;96.30;;;;;;5088028;28;20652;-61
2022/04/05 04:01:14;;;;;;;6.75;6.07;;;7.60;96.40;;;;;;5092376;28;20192;-62
2022/04/05 04:03:40;;;;;;;6.80;6.20;;;7.20;95.10;;;;;;5079818;28;20217;-61
2022/04/05 04:06:05;;;;;;;7.33;6.57;;;6.90;95.00;;;;;;5075247;28;20180;-61
2022/04/05 04:08:31;;;;;;;6.40;5.90;;;7.60;95.50;;;;;;5081291;28;20262;-61
2022/04/05 04:10:57;;;;;;;7.83;6.53;;;7.60;95.90;;;;;;5087681;28;20198;-61
2022/04/05 04:13:22;;;;;;;8.23;6.10;;;7.40;96.10;;;;;;5090745;28;20461;-61
2022/04/05 04:15:48;;;;;;;6.90;6.20;;;7.40;95.80;;;;;;5083342;28;20249;-61
2022/04/05 04:18:14;;;;;;;7.67;6.90;;;6.80;95.30;;;;;;5081756;28;20224;-61
2022/04/05 04:20:42;;;;;;;7.83;5.60;;;7.70;95.70;;;;;;5084095;28;20705;-61
2022/04/05 04:23:08;;;;;;;6.18;5.47;;;7.50;94.90;;;;;;5092302;28;20730;-61
2022/04/05 04:25:34;;;;;;;7.45;6.10;;;7.50;95.10;;;;;;5083195;28;20675;-61
2022/04/05 04:28:00;;;;;;;8.27;6.60;;;7.60;94.90;;;;;;5105858;28;20196;-61
2022/04/05 04:30:26;;;;;;;7.97;6.27;;;7.90;95.60;;;;;;5083071;28;20210;-61
2022/04/05 04:32:53;;;;;;;8.17;6.60;;;7.40;95.70;;;;;;5081839;28;20886;-61
2022/04/05 04:35:20;;;;;;;6.68;6.10;;;7.40;96.20;;;;;;5075080;28;20181;-61
2022/04/05 04:37:46;;;;;;;7.35;6.15;;;7.40;96.50;;;;;;5092455;28;20226;-61
2022/04/05 04:40:12;;;;;;;6.70;6.10;;;7.30;96.90;;;;;;5093957;28;20241;-61
2022/04/05 04:42:38;;;;;;;6.88;6.18;;;7.30;97.20;;;;;;5089902;28;20470;-61
2022/04/05 04:45:04;;;;;;;8.43;6.93;;;7.20;97.40;;;;;;5081998;28;20661;-61
2022/04/05 04:47:29;;;;;;;6.10;5.50;;;7.00;98.30;;;;;;5093122;28;20233;-61
2022/04/05 04:49:55;;;;;;;7.47;6.67;;;7.10;98.60;;;;;;5090909;28;20348;-61
2022/04/05 04:52:21;;;;;;;7.60;6.33;;;7.10;99.20;;;;;;5091356;28;20618;-61
2022/04/05 04:54:47;;;;;;;10.63;7.70;;;7.10;99.30;;;;;;5083254;28;20196;-61
2022/04/05 04:57:12;;;;;;;8.37;7.60;;;7.00;99.20;;;;;;5070798;28;20798;-60
2022/04/05 04:59:38;;;;;;;8.90;7.23;;;7.10;99.90;;;;;;5089590;28;20246;-61
2022/04/05 05:02:03;;;;;;;7.63;6.50;;;7.00;99.80;;;;;;5090260;28;20212;-61
2022/04/05 05:04:30;;;;;;;9.17;7.27;;;7.10;99.90;;;;;;5088984;28;20413;-61
2022/04/05 05:06:56;;;;;;;7.20;6.47;;;7.00;99.90;;;;;;5073874;28;20189;-61
2022/04/05 05:09:21;;;;;;;6.80;6.20;;;6.90;99.90;;;;;;5091953;28;20188;-60
2022/04/05 05:11:47;;;;;;;8.93;7.43;;;7.00;99.90;;;;;;5088350;28;20263;-61
2022/04/05 05:14:13;;;;;;;7.93;6.23;;;6.90;99.90;;;;;;5077602;28;20181;-61
2022/04/05 05:16:39;;;;;;;8.38;7.30;;;6.90;99.90;;;;;;5077382;28;20212;-61
2022/04/05 05:19:05;;;;;;;7.63;6.93;;;6.90;99.90;;;;;;5091365;28;20198;-61
2022/04/05 05:21:31;;;;;;;7.20;6.50;;;6.80;99.90;;;;;;5082856;28;20219;-61
2022/04/05 05:23:57;;;;;;;7.30;6.60;;;6.50;99.90;;;;;;5096598;28;20200;-61
2022/04/05 05:26:23;;;;;;;7.67;6.33;;;6.50;99.90;;;;;;5077705;28;20212;-61
2022/04/05 05:28:49;;;;;;;7.43;6.73;;;7.00;99.90;;;;;;5088778;28;20213;-61
2022/04/05 05:31:14;;;;;;;8.90;8.17;;;7.00;99.90;;;;;;5092151;28;20537;-60
2022/04/05 05:33:40;;;;;;;7.23;6.53;;;7.00;99.90;;;;;;5083692;28;20534;-62
2022/04/05 05:36:06;;;;;;;7.80;7.00;;;7.30;99.90;;;;;;5080215;28;20245;-61
2022/04/05 05:38:32;;;;;;;10.40;8.00;;;7.10;99.90;;;;;;5089573;28;20193;-61
2022/04/05 05:40:57;;;;;;;7.97;7.03;;;6.90;99.90;;;;;;5082120;28;20435;-60
2022/04/05 05:43:23;;;;;;;8.53;7.00;;;7.00;99.90;;;;;;5082269;28;20582;-59
2022/04/05 05:45:49;;;;;;;8.27;7.33;;;7.20;99.90;;;;;;5082837;28;20176;-61
2022/04/05 05:48:15;;;;;;;8.77;6.13;;;6.90;99.90;;;;;;5088566;28;20219;-61
2022/04/05 05:50:41;;;;;;;7.33;6.63;;;7.00;99.90;;;;;;5081755;28;20181;-61
2022/04/05 05:53:06;;;;;;;8.00;7.20;;;7.00;99.90;;;;;;5087063;28;20488;-60
2022/04/05 05:55:33;;;;;;;8.20;7.40;;;6.60;99.90;;;;;;5084791;28;20196;-60
2022/04/05 05:57:59;;;;;;;6.75;6.10;;;7.20;99.90;;;;;;5084721;28;20271;-60
2022/04/05 06:00:25;;;;;;;7.00;6.20;;;7.00;99.90;;;;;;5087497;28;20276;-59
2022/04/05 06:02:56;;;;;;;7.20;6.50;;;7.40;99.90;;;;;;5079507;28;20681;-59
2022/04/05 06:05:22;;;;;;;8.02;6.40;;;7.20;99.90;;;;;;5072371;28;20470;-58
2022/04/05 06:07:48;;;;;;;7.50;6.80;;;6.90;99.90;;;;;;5067394;28;20298;-60
2022/04/05 06:10:15;;;;;;;7.87;6.73;;;6.90;99.90;;;;;;5090181;28;20314;-58
2022/04/05 06:12:42;;;;;;;8.73;7.10;;;7.00;99.90;;;;;;5083964;28;20342;-58
2022/04/05 06:15:11;;;;;;;7.25;6.55;;;6.80;99.90;;;;;;5085864;28;20212;-56
2022/04/05 06:17:38;;;;;;;8.10;7.30;;;6.90;99.90;;;;;;5082741;28;20227;-58
2022/04/05 06:20:05;;;;;;;8.52;7.10;;;6.90;99.90;;;;;;5083255;28;20192;-59
2022/04/05 06:22:31;;;;;;;7.30;6.55;;;6.90;99.90;;;;;;5086350;28;20289;-69
2022/04/05 06:24:56;;;;;;;8.23;7.03;;;6.90;99.90;;;;;;5074533;28;20645;-67
2022/04/05 06:27:23;;;;;;;9.83;8.10;;;6.70;99.90;;;;;;5083993;28;20274;-66
2022/04/05 06:29:49;;;;;;;8.13;7.32;;;6.80;99.90;;;;;;5067360;28;20169;-72
2022/04/05 06:32:16;;;;;;;7.03;6.37;;;6.80;99.90;;;;;;5087522;28;20221;-69
2022/04/05 06:34:41;;;;;;;7.50;6.72;;;7.00;99.90;;;;;;5083552;28;20182;-69
2022/04/05 06:37:07;;;;;;;7.97;6.97;;;6.90;99.90;;;;;;5078032;28;20215;-66
2022/04/05 06:39:33;;;;;;;7.97;6.63;;;6.70;99.90;;;;;;5081407;28;20613;-66
2022/04/05 06:41:59;;;;;;;9.77;7.37;;;6.90;99.90;;;;;;5065752;28;20294;-67
2022/04/05 06:44:25;;;;;;;7.77;6.97;;;7.30;99.90;;;;;;5066282;28;20601;-68
2022/04/05 06:46:51;;;;;;;7.10;6.40;;;6.70;99.90;;;;;;5081719;28;20740;-68
2022/04/05 06:49:16;;;;;;;9.50;7.10;;;7.20;99.90;;;;;;5070275;28;20180;-71
2022/04/05 06:51:42;;;;;;;7.53;6.73;;;6.90;99.90;;;;;;5085223;28;20191;-70
2022/04/05 06:54:09;;;;;;;7.97;7.17;;;6.60;99.90;;;;;;5069857;28;20331;-66
2022/04/05 06:56:34;;;;;;;12.75;8.70;;;7.00;99.90;;;;;;5067859;28;20188;-70
2022/04/05 06:59:00;;;;;;;9.20;6.80;;;6.90;99.90;;;;;;5081146;28;20696;-64
2022/04/05 07:01:26;;;;;;;6.73;6.03;;;6.80;99.90;;;;;;5075393;28;20193;-63
2022/04/05 07:03:52;;;;;;;7.20;6.50;;;7.00;99.90;;;;;;5073105;28;20728;-63
2022/04/05 07:06:17;;;;;;;7.33;6.63;;;7.00;99.90;;;;;;5076777;28;20217;-63
2022/04/05 07:08:43;;;;;;;6.93;6.10;;;6.50;99.90;;;;;;5085636;28;20939;-65
2022/04/05 07:11:09;;;;;;;6.23;5.63;;;7.00;99.90;;;;;;5087381;28;20177;-65
2022/04/05 07:13:34;;;;;;;7.10;6.07;;;7.40;99.90;;;;;;5079433;28;20211;-64
2022/04/05 07:16:00;;;;;;;6.60;6.00;;;7.20;99.90;;;;;;5086896;28;20184;-66
2022/04/05 07:18:26;;;;;;;7.77;5.97;;;6.80;99.90;;;;;;5083047;28;20192;-62
2022/04/05 07:20:52;;;;;;;5.77;5.13;;;7.50;99.90;;;;;;5072886;28;20237;-65
2022/04/05 07:23:18;;;;;;;9.05;7.65;;;7.70;99.90;;;;;;5078651;28;20212;-65
2022/04/05 07:25:43;;;;;;;6.90;6.20;;;7.40;99.90;;;;;;5079519;28;20594;-64
2022/04/05 07:28:09;;;;;;;7.47;6.03;;;7.60;99.90;;;;;;5083414;28;20483;-62
2022/04/05 07:30:35;;;;;;;7.90;7.07;;;7.50;99.90;;;;;;5082170;28;20256;-61
2022/04/05 07:33:00;;;;;;;6.53;5.80;;;7.60;99.90;;;;;;5079742;28;20260;-63
2022/04/05 07:35:27;;;;;;;6.10;5.50;;;7.70;99.90;;;;;;5059463;28;20192;-65
2022/04/05 07:37:54;;;;;;;6.00;5.50;;;7.50;99.90;;;;;;5052286;28;20578;-66
2022/04/05 07:40:19;;;;;;;6.65;5.95;;;7.80;99.90;;;;;;5096198;28;20317;-63
2022/04/05 07:42:46;;;;;;;6.00;5.50;;;7.30;99.90;;;;;;5099811;28;20294;-62
2022/04/05 07:45:14;;;;;;;6.38;5.80;;;7.70;99.90;;;;;;5079952;28;20663;-61
2022/04/05 07:47:40;;;;;;;7.63;6.25;;;7.70;99.90;;;;;;5083042;28;20669;-62
2022/04/05 07:50:07;;;;;;;6.13;5.55;;;7.60;99.90;;;;;;5080936;28;20192;-62
2022/04/05 07:52:33;;;;;;;6.63;6.03;;;7.80;99.90;;;;;;5071745;28;20212;-61
2022/04/05 07:54:59;;;;;;;6.67;6.07;;;7.50;99.90;;;;;;5082196;28;20392;-62
2022/04/05 07:57:25;;;;;;;6.57;5.70;;;7.80;99.90;;;;;;5080084;28;20234;-63
2022/04/05 07:59:50;;;;;;;6.43;5.73;;;7.90;99.90;;;;;;5079260;28;20193;-63
2022/04/05 08:02:16;;;;;;;7.33;5.53;;;8.10;99.90;;;;;;5079844;28;20594;-64
2022/04/05 08:04:42;;;;;;;6.10;5.30;;;8.20;99.90;;;;;;5086732;28;20196;-62
2022/04/05 08:07:07;;;;;;;6.60;5.90;;;7.60;99.90;;;;;;5085936;28;20184;-64
2022/04/05 08:09:33;;;;;;;7.40;5.70;;;7.60;99.90;;;;;;5081234;28;20207;-65
2022/04/05 08:11:59;;;;;;;7.83;6.50;;;8.20;99.90;;;;;;5081911;28;20257;-64
2022/04/05 08:14:28;;;;;;;7.40;6.17;;;8.40;99.90;;;;;;5086719;28;21066;-65
2022/04/05 08:16:56;;;;;;;5.47;4.85;;;8.90;99.90;;;;;;5080246;28;20366;-62
2022/04/05 08:19:22;;;;;;;7.10;5.32;;;8.80;99.90;;;;;;5065306;28;20189;-62
2022/04/05 08:21:48;;;;;;;6.10;5.50;;;8.70;99.90;;;;;;5080126;28;20705;-61
2022/04/05 08:24:14;;;;;;;5.87;5.27;;;9.30;99.90;;;;;;5085633;28;20264;-58
2022/04/05 08:26:39;;;;;;;7.90;5.40;;;9.00;99.90;;;;;;5072968;28;20602;-61
2022/04/05 08:29:05;;;;;;;6.53;5.67;;;8.70;99.90;;;;;;5071841;28;21204;-65
2022/04/05 08:31:30;;;;;;;5.73;5.17;;;8.80;99.90;;;;;;5079515;28;20199;-63
2022/04/05 08:33:56;;;;;;;8.63;6.07;;;9.00;99.90;;;;;;5073968;28;20197;-62
2022/04/05 08:36:22;;;;;;;6.90;6.20;;;8.80;99.90;;;;;;5066425;28;20271;-63
2022/04/05 08:38:48;;;;;;;7.27;5.20;;;8.70;99.90;;;;;;5084800;28;20695;-63
2022/04/05 08:41:19;;;;;;;6.93;5.97;;;8.80;99.90;;;;;;5091710;28;20793;-62
2022/04/05 08:43:45;;;;;;;5.43;4.93;;;8.80;99.90;;;;;;5079813;28;20208;-62
2022/04/05 08:46:10;;;;;;;6.38;5.30;;;9.00;99.90;;;;;;5084555;28;20469;-63
2022/04/05 08:48:37;;;;;;;6.83;6.00;;;9.10;99.90;;;;;;5086709;28;20181;-66
2022/04/05 08:51:04;;;;;;;6.80;4.90;;;8.80;99.90;;;;;;5079677;28;20231;-63
2022/04/05 08:53:32;;;;;;;5.82;5.25;;;9.00;99.90;;;;;;5094998;28;20212;-66
2022/04/05 08:55:58;;;;;;;5.93;5.32;;;9.50;99.90;;;;;;5093538;28;20188;-63
2022/04/05 08:58:24;;;;;;;8.60;6.38;;;9.20;99.90;;;;;;5077857;28;20700;-64
2022/04/05 09:00:52;;;;;;;6.40;5.17;;;9.40;99.90;;;;;;5092844;28;20196;-66
2022/04/05 09:03:18;;;;;;;5.57;4.90;;;9.50;99.90;;;;;;5088483;28;20220;-66
2022/04/05 09:05:44;;;;;;;5.43;4.93;;;9.50;99.90;;;;;;5083547;28;20192;-69
2022/04/05 09:08:30;;;;;;;5.75;4.72;;;9.60;99.90;;;;;;5081702;28;20181;-66
2022/04/05 09:11:12;;;;;;;5.65;5.10;;;10.00;99.90;;;;;;5066727;28;20207;-66
2022/04/05 09:13:38;;;;;;;4.90;4.40;;;9.90;99.90;;;;;;5088175;28;20223;-66
2022/04/05 09:16:05;;;;;;;5.00;4.57;;;9.80;99.90;;;;;;5085593;28;20184;-64
2022/04/05 09:18:39;;;;;;;7.45;5.20;;;10.10;99.90;;;;;;5080316;28;20412;-63
2022/04/05 09:21:07;;;;;;;6.30;5.05;;;10.10;99.90;;;;;;5076914;28;20185;-64
2022/04/05 09:23:34;;;;;;;7.35;6.50;;;10.00;99.90;;;;;;5088152;28;20303;-64
2022/04/05 09:26:04;;;;;;;4.80;4.40;;;10.10;99.90;;;;;;5079294;28;20174;-61
2022/04/05 09:28:38;;;;;;;4.55;4.15;;;10.20;99.80;;;;;;5080494;28;20199;-60
2022/04/05 09:31:06;;;;;;;5.50;4.90;;;10.40;99.90;;;;;;5075381;28;20184;-59
2022/04/05 09:33:35;;;;;;;7.05;5.25;;;10.30;99.70;;;;;;5094751;28;20232;-60
2022/04/05 09:36:07;;;;;;;5.35;4.85;;;10.20;99.90;;;;;;5075527;28;20200;-60
2022/04/05 09:38:33;;;;;;;4.35;3.95;;;10.30;99.90;;;;;;5093863;28;20192;-62
2022/04/05 09:41:09;;;;;;;4.60;4.20;;;10.40;98.50;;;;;;5087028;28;20271;-60
2022/04/05 09:43:34;;;;;;;5.32;3.95;;;10.30;99.10;;;;;;5081742;28;20212;-61
2022/04/05 09:46:01;;;;;;;5.20;4.70;;;10.30;99.80;;;;;;5086778;28;20195;-60
2022/04/05 09:48:32;;;;;;;4.40;4.00;;;10.70;99.80;;;;;;5089830;28;20180;-61
2022/04/05 09:51:14;;;;;;;4.57;4.18;;;10.30;99.60;;;;;;5080067;28;20209;-61
2022/04/05 09:53:47;;;;;;;5.45;4.80;;;10.40;99.90;;;;;;5087806;28;20208;-60
2022/04/05 09:56:15;;;;;;;7.35;3.90;;;10.60;99.70;;;;;;5090361;28;20607;-60
2022/04/05 09:58:53;;;;;;;5.50;4.93;;;10.20;99.90;;;;;;5084084;28;20185;-61
2022/04/05 10:01:25;;;;;;;4.63;4.22;;;10.60;99.90;;;;;;5078529;28;20229;-61
2022/04/05 10:03:57;;;;;;;6.13;4.60;;;10.50;99.90;;;;;;5093158;28;20752;-60
2022/04/05 10:06:22;;;;;;;5.82;5.00;;;10.40;99.90;;;;;;5077427;28;20269;-60
2022/04/05 10:08:48;;;;;;;6.57;5.30;;;10.40;99.90;;;;;;5083992;28;20264;-59
2022/04/05 10:11:14;;;;;;;5.33;4.83;;;10.40;99.90;;;;;;5079216;28;20433;-60
2022/04/05 10:13:41;;;;;;;4.93;4.45;;;10.60;99.90;;;;;;5092980;28;20233;-61
2022/04/05 10:16:10;;;;;;;7.00;4.70;;;10.40;99.90;;;;;;5084591;28;20185;-59
2022/04/05 10:18:36;;;;;;;5.15;4.65;;;10.70;99.90;;;;;;5092655;28;20207;-65
2022/04/05 10:21:04;;;;;;;8.00;4.93;;;10.20;99.90;;;;;;5083367;28;20193;-60
2022/04/05 10:23:31;;;;;;;4.82;4.38;;;9.90;99.90;;;;;;5096430;28;20222;-60
2022/04/05 10:25:58;;;;;;;5.22;4.72;;;10.10;99.90;;;;;;5089969;28;20179;-60
2022/04/05 10:28:27;;;;;;;6.03;5.25;;;10.30;99.90;;;;;;5062006;28;20181;-61
2022/04/05 10:31:40;;;;;;;6.35;4.60;;;10.20;99.90;;;;;;5088942;28;20294;-62
2022/04/05 10:34:44;;;;;;;6.80;4.63;;;10.50;99.90;;;;;;5039286;28;20225;-65
2022/04/05 10:37:19;;;;;;;5.40;4.90;;;10.50;99.90;;;;;;5071381;28;20184;-65
2022/04/05 10:39:57;;;;;;;5.40;4.90;;;10.30;99.90;;;;;;5094964;28;20582;-67
2022/04/05 10:42:25;;;;;;;5.85;5.00;;;10.40;99.90;;;;;;5070482;28;20204;-63
2022/04/05 10:44:53;;;;;;;6.70;4.80;;;10.40;99.90;;;;;;5085784;28;20217;-63
2022/04/05 10:47:19;;;;;;;4.72;4.20;;;10.30;99.90;;;;;;5065243;28;20185;-62
2022/04/05 10:49:50;;;;;;;4.65;4.25;;;10.20;99.90;;;;;;5089975;28;20711;-63
2022/04/05 10:52:31;;;;;;;5.78;4.53;;;10.50;99.90;;;;;;5086193;28;20197;-62
2022/04/05 10:55:04;;;;;;;5.28;4.18;;;10.30;99.90;;;;;;5082146;28;20177;-64
2022/04/05 10:57:40;;;;;;;6.43;4.20;;;10.50;99.90;;;;;;5091940;28;20188;-64
2022/04/05 11:00:20;;;;;;;5.30;4.45;;;10.50;99.90;;;;;;5073255;28;20251;-64
2022/04/05 11:03:01;;;;;;;5.43;4.20;;;10.50;99.90;;;;;;5090194;28;20715;-68
2022/04/05 11:05:35;;;;;;;4.40;4.10;;;10.60;99.90;;;;;;5088289;28;20646;-67
2022/04/05 11:08:02;;;;;;;4.32;3.92;;;10.70;99.90;;;;;;5065888;28;20186;-68
2022/04/05 11:10:46;;;;;;;4.22;3.83;;;10.80;99.90;;;;;;5088084;28;20187;-70
2022/04/05 11:13:20;;;;;;;5.25;4.43;;;10.70;99.90;;;;;;5097111;28;20224;-68
2022/04/05 11:15:49;;;;;;;5.68;3.75;;;10.90;99.90;;;;;;5079628;28;20242;-63
2022/04/05 11:18:18;;;;;;;4.20;3.80;;;10.90;99.90;;;;;;5072953;28;20197;-65
2022/04/05 11:20:45;;;;;;;4.55;4.18;;;10.70;99.90;;;;;;5081564;28;20404;-65
2022/04/05 11:23:12;;;;;;;3.50;3.20;;;11.20;99.90;;;;;;5072144;28;20216;-64
2022/04/05 11:25:38;;;;;;;4.18;3.85;;;11.20;99.90;;;;;;5075880;28;20583;-66
2022/04/05 11:28:19;;;;;;;4.27;3.83;;;11.40;99.90;;;;;;5087949;28;20212;-70
2022/04/05 11:31:02;;;;;;;4.30;3.90;;;11.90;99.90;;;;;;5071687;28;20221;-68
2022/04/05 11:33:31;;;;;;;4.85;3.97;;;11.70;99.90;;;;;;5081366;28;20206;-69
2022/04/05 11:36:13;;;;;;;3.78;3.40;;;11.70;99.90;;;;;;5078308;28;21201;-71
2022/04/05 11:38:40;;;;;;;6.85;4.68;;;11.70;99.90;;;;;;5062427;28;20194;-71
2022/04/05 11:41:18;;;;;;;3.65;3.35;;;11.90;99.90;;;;;;5083253;28;20271;-63
2022/04/05 11:43:45;;;;;;;4.88;3.70;;;11.90;99.90;;;;;;5076853;28;20210;-61
2022/04/05 11:46:15;;;;;;;5.20;3.50;;;12.20;99.90;;;;;;5077947;28;20183;-61
2022/04/05 11:49:04;;;;;;;4.28;3.88;;;11.90;99.90;;;;;;5084615;28;20207;-65
2022/04/05 11:51:34;;;;;;;3.92;3.63;;;12.00;99.90;;;;;;5072900;28;20187;-63
2022/04/05 11:54:09;;;;;;;3.70;3.40;;;12.20;99.90;;;;;;5074244;28;20201;-63
2022/04/05 11:56:36;;;;;;;4.20;3.80;;;12.30;99.90;;;;;;5085120;28;20647;-62
2022/04/05 11:59:05;;;;;;;3.60;3.30;;;12.60;99.40;;;;;;5086118;28;20607;-66
2022/04/05 12:01:37;;;;;;;3.40;3.10;;;12.70;98.90;;;;;;5082939;28;20202;-65
2022/04/05 12:04:10;;;;;;;3.67;2.70;;;12.60;99.50;;;;;;5086249;28;20230;-65
2022/04/05 12:06:47;;;;;;;4.95;3.70;;;12.60;98.70;;;;;;5073553;28;20271;-65
2022/04/05 12:09:14;;;;;;;3.45;2.95;;;12.80;98.90;;;;;;5075872;28;20257;-60
2022/04/05 12:11:43;;;;;;;3.17;2.88;;;12.60;97.70;;;;;;5081751;28;20195;-62
2022/04/05 12:14:14;;;;;;;5.22;3.45;;;12.70;98.50;;;;;;5086405;28;20179;-62
2022/04/05 12:17:03;;;;;;;5.22;3.75;;;12.70;98.50;;;;;;5091518;28;20180;-63
2022/04/05 12:19:33;;;;;;;4.05;3.65;;;12.80;98.20;;;;;;5081922;28;20203;-63
2022/04/05 12:22:02;;;;;;;3.58;3.28;;;12.80;99.00;;;;;;5088523;28;20792;-62
2022/04/05 12:24:30;;;;;;;2.90;2.70;;;12.60;98.60;;;;;;5082791;28;20283;-64
2022/04/05 12:27:00;;;;;;;2.83;2.63;;;13.00;99.10;;;;;;5085558;28;20226;-64
2022/04/05 12:29:28;;;;;;;3.83;3.53;;;12.80;98.20;;;;;;5083751;28;20620;-64
2022/04/05 12:31:54;;;;;;;3.03;2.72;;;12.70;98.60;;;;;;5089242;28;20202;-66
2022/04/05 12:34:20;;;;;;;4.70;4.30;;;12.60;98.90;;;;;;5085219;28;20555;-65
2022/04/05 12:36:58;;;;;;;3.27;2.97;;;12.50;99.00;;;;;;5085771;28;20214;-65
2022/04/05 12:39:32;;;;;;;3.40;3.10;;;12.60;98.20;;;;;;5081096;28;20438;-65
2022/04/05 12:42:01;;;;;;;3.65;2.95;;;12.20;98.40;;;;;;5092360;28;20263;-64
2022/04/05 12:44:30;;;;;;;3.50;3.20;;;12.30;99.10;;;;;;5071418;28;20213;-65
2022/04/05 12:47:08;;;;;;;4.18;3.35;;;12.10;99.50;;;;;;5083004;28;20224;-64
2022/04/05 12:49:38;;;;;;;4.18;3.25;;;12.40;99.70;;;;;;5080503;28;20237;-64
2022/04/05 12:52:25;;;;;;;3.97;3.28;;;12.20;99.40;;;;;;5073647;28;20218;-67
2022/04/05 12:54:56;;;;;;;3.42;2.95;;;12.10;99.50;;;;;;5093820;28;20205;-65
2022/04/05 12:57:27;;;;;;;4.18;2.75;;;12.50;99.90;;;;;;5086028;28;20226;-64